Time;durP1;ratioP1;P1;durP2;ratioP2;P2;SDS_P1;SDS_P2;PMS_P1;PMS_P2;Temp;Humidity;BMP_temperature;BMP_pressure;BME280_temperature;BME280_humidity;BME280_pressure;Samples;Min_cycle;Max_cycle;Signal;HPM_P1;HPM_P2
2023/12/03 00:02:23;;;;;;;28.77;18.30;;;1.00;18.10;;;;;;5092638;28;20181;-77
2023/12/03 00:04:51;;;;;;;34.37;19.50;;;1.00;24.50;;;;;;5091619;28;20190;-76
2023/12/03 00:07:16;;;;;;;29.07;18.43;;;1.00;24.30;;;;;;5092488;28;20182;-76
2023/12/03 00:09:42;;;;;;;31.07;19.30;;;1.00;26.00;;;;;;5091159;28;20170;-77
2023/12/03 00:12:08;;;;;;;34.37;20.13;;;1.00;18.90;;;;;;5092470;28;20174;-76
2023/12/03 00:14:34;;;;;;;28.83;18.40;;;1.00;10.40;;;;;;5091068;28;20576;-76
2023/12/03 00:17:00;;;;;;;35.00;18.43;;;1.00;1.00;;;;;;5092297;28;20257;-76
2023/12/03 00:19:26;;;;;;;29.43;18.83;;;1.00;1.00;;;;;;5092576;28;20203;-77
2023/12/03 00:21:52;;;;;;;34.27;18.90;;;1.00;1.00;;;;;;5092385;28;20253;-77
2023/12/03 00:24:18;;;;;;;35.30;20.63;;;1.00;1.00;;;;;;5092313;28;20193;-77
2023/12/03 00:26:43;;;;;;;34.23;19.53;;;1.00;1.00;;;;;;5090814;28;20197;-77
2023/12/03 00:29:10;;;;;;;30.70;19.17;;;1.00;6.10;;;;;;5090777;28;20182;-76
2023/12/03 00:31:35;;;;;;;33.63;19.13;;;1.00;1.00;;;;;;5090214;28;20190;-77
2023/12/03 00:34:05;;;;;;;32.07;18.67;;;0.90;1.00;;;;;;5090728;28;20285;-76
2023/12/03 00:36:30;;;;;;;31.13;18.77;;;0.90;1.00;;;;;;5092158;28;20170;-76
2023/12/03 00:38:56;;;;;;;37.13;18.67;;;0.90;1.00;;;;;;5089815;28;20178;-76
2023/12/03 00:41:22;;;;;;;35.37;18.07;;;1.00;1.00;;;;;;5091491;28;20209;-76
2023/12/03 00:43:48;;;;;;;31.63;19.33;;;1.00;1.00;;;;;;5092040;28;20190;-77
2023/12/03 00:46:20;;;;;;;34.90;19.67;;;1.00;1.00;;;;;;5091875;28;20197;-76
2023/12/03 00:48:48;;;;;;;34.93;19.70;;;1.00;1.00;;;;;;5092488;28;20173;-76
2023/12/03 00:51:14;;;;;;;36.73;19.97;;;1.00;1.00;;;;;;5091153;28;20277;-76
2023/12/03 00:53:41;;;;;;;33.17;18.70;;;1.00;1.00;;;;;;5091157;28;20650;-76
2023/12/03 00:56:07;;;;;;;38.77;20.00;;;1.00;1.00;;;;;;5092023;28;20192;-76
2023/12/03 00:58:33;;;;;;;32.80;19.03;;;1.00;1.00;;;;;;5092015;28;20249;-76
2023/12/03 01:00:58;;;;;;;35.47;19.97;;;1.00;12.10;;;;;;5091865;28;20696;-77
2023/12/03 01:03:24;;;;;;;31.17;19.60;;;1.00;27.90;;;;;;5093895;28;20182;-76
2023/12/03 01:05:49;;;;;;;39.37;21.77;;;1.00;45.90;;;;;;5095980;28;20190;-77
2023/12/03 01:08:15;;;;;;;37.97;20.27;;;1.00;59.50;;;;;;5094662;28;20209;-76
2023/12/03 01:10:41;;;;;;;36.23;19.77;;;1.00;87.30;;;;;;5094717;28;20174;-76
2023/12/03 01:13:06;;;;;;;40.27;21.67;;;1.10;97.10;;;;;;5096525;28;20163;-76
2023/12/03 01:15:32;;;;;;;35.83;21.07;;;1.00;99.90;;;;;;5096005;28;20186;-76
2023/12/03 01:17:57;;;;;;;42.13;22.33;;;1.00;99.90;;;;;;5095740;28;20668;-77
2023/12/03 01:20:23;;;;;;;33.23;20.17;;;1.10;99.90;;;;;;5096150;28;20167;-76
2023/12/03 01:22:49;;;;;;;37.67;21.23;;;1.10;99.90;;;;;;5095431;28;20667;-76
2023/12/03 01:25:14;;;;;;;38.33;21.97;;;1.10;99.90;;;;;;5095711;28;20756;-77
2023/12/03 01:27:40;;;;;;;44.63;23.30;;;1.10;99.90;;;;;;5095512;28;20683;-76
2023/12/03 01:30:06;;;;;;;38.67;20.67;;;1.10;99.90;;;;;;5094209;28;20180;-76
2023/12/03 01:32:31;;;;;;;39.33;21.30;;;1.10;99.90;;;;;;5095601;28;20281;-77
2023/12/03 01:34:57;;;;;;;36.73;20.80;;;1.10;99.90;;;;;;5095445;28;20229;-76
2023/12/03 01:37:24;;;;;;;39.63;22.17;;;1.10;99.90;;;;;;5095563;28;20303;-76
2023/12/03 01:39:49;;;;;;;37.50;22.03;;;1.10;99.90;;;;;;5091959;28;20273;-76
2023/12/03 01:42:15;;;;;;;39.77;22.37;;;1.10;99.90;;;;;;5095182;28;20180;-76
2023/12/03 01:44:40;;;;;;;40.10;23.63;;;1.10;99.90;;;;;;5093749;28;20610;-76
2023/12/03 01:47:06;;;;;;;41.43;21.73;;;1.20;99.90;;;;;;5093618;28;20206;-75
2023/12/03 01:49:31;;;;;;;40.63;23.27;;;1.20;99.90;;;;;;5093780;28;20174;-76
2023/12/03 01:51:58;;;;;;;38.43;21.43;;;1.20;99.90;;;;;;5095096;28;20174;-77
2023/12/03 01:54:35;;;;;;;38.37;22.13;;;1.20;99.90;;;;;;5094452;28;20608;-76
2023/12/03 01:57:01;;;;;;;38.63;20.63;;;1.20;99.90;;;;;;5095277;28;20159;-76
2023/12/03 01:59:27;;;;;;;41.87;23.00;;;1.20;99.90;;;;;;5094876;28;20166;-76
2023/12/03 02:01:53;;;;;;;37.87;21.80;;;1.20;99.90;;;;;;5095012;28;20182;-76
2023/12/03 02:04:18;;;;;;;39.70;22.50;;;1.20;99.90;;;;;;5095012;28;20224;-76
2023/12/03 02:06:44;;;;;;;37.73;22.10;;;1.20;99.90;;;;;;5094738;28;20682;-76
2023/12/03 02:09:09;;;;;;;38.97;21.13;;;1.20;99.90;;;;;;5092635;28;20174;-77
2023/12/03 02:11:35;;;;;;;40.30;22.47;;;1.20;99.90;;;;;;5093371;28;20181;-77
2023/12/03 02:14:02;;;;;;;41.13;22.23;;;1.20;99.90;;;;;;5093908;28;20201;-76
2023/12/03 02:16:30;;;;;;;39.87;23.60;;;1.30;99.90;;;;;;5094554;28;20202;-76
2023/12/03 02:18:56;;;;;;;37.03;22.07;;;1.20;99.90;;;;;;5094308;28;20190;-75
2023/12/03 02:21:21;;;;;;;41.63;23.43;;;1.30;99.90;;;;;;5094961;28;20174;-76
2023/12/03 02:23:47;;;;;;;39.50;22.77;;;1.30;99.90;;;;;;5094410;28;20225;-76
2023/12/03 02:26:13;;;;;;;40.90;22.90;;;1.30;99.90;;;;;;5092298;28;20189;-76
2023/12/03 02:28:38;;;;;;;39.27;23.43;;;1.30;99.90;;;;;;5093308;28;20715;-76
2023/12/03 02:31:04;;;;;;;40.73;22.97;;;1.30;99.90;;;;;;5094480;28;20223;-77
2023/12/03 02:33:30;;;;;;;44.43;24.40;;;1.30;99.90;;;;;;5092829;28;20186;-76
2023/12/03 02:35:55;;;;;;;41.23;22.77;;;1.30;99.90;;;;;;5094237;28;20538;-76
2023/12/03 02:38:21;;;;;;;40.63;24.13;;;1.30;99.90;;;;;;5094331;28;20174;-77
2023/12/03 02:40:46;;;;;;;38.43;23.27;;;1.30;99.90;;;;;;5092250;28;20182;-76
2023/12/03 02:43:12;;;;;;;37.97;22.13;;;1.30;99.90;;;;;;5094040;28;20231;-77
2023/12/03 02:45:38;;;;;;;38.70;22.67;;;1.30;99.90;;;;;;5092677;28;20202;-77
2023/12/03 02:48:04;;;;;;;37.07;21.47;;;1.30;99.90;;;;;;5094409;28;20206;-77
2023/12/03 02:50:29;;;;;;;40.43;22.20;;;1.30;99.90;;;;;;5094039;28;20193;-77
2023/12/03 02:52:55;;;;;;;36.23;22.80;;;1.30;99.90;;;;;;5093906;28;20170;-77
2023/12/03 02:55:20;;;;;;;35.60;21.53;;;1.30;99.90;;;;;;5093863;28;20187;-76
2023/12/03 02:57:46;;;;;;;39.30;22.70;;;1.30;99.90;;;;;;5092470;28;20217;-76
2023/12/03 03:00:12;;;;;;;38.80;23.10;;;1.30;99.90;;;;;;5091849;28;20542;-76
2023/12/03 03:02:38;;;;;;;36.20;21.40;;;1.30;99.90;;;;;;5093682;28;20185;-77
2023/12/03 03:05:05;;;;;;;36.07;21.50;;;1.30;99.90;;;;;;5092223;28;20209;-77
2023/12/03 03:07:30;;;;;;;40.70;22.07;;;1.30;99.90;;;;;;5092250;28;20288;-77
2023/12/03 03:09:56;;;;;;;41.50;21.67;;;1.30;99.90;;;;;;5093560;28;20249;-77
2023/12/03 03:12:21;;;;;;;45.17;23.67;;;1.30;99.90;;;;;;5093582;28;20612;-76
2023/12/03 03:14:47;;;;;;;39.67;22.33;;;1.30;99.90;;;;;;5091696;28;20265;-76
2023/12/03 03:17:13;;;;;;;37.13;21.07;;;1.30;99.90;;;;;;5093419;28;20254;-76
2023/12/03 03:19:42;;;;;;;36.20;21.67;;;1.30;99.90;;;;;;5093337;28;20500;-77
2023/12/03 03:22:07;;;;;;;34.73;21.70;;;1.30;99.90;;;;;;5093502;28;20206;-77
2023/12/03 03:24:33;;;;;;;31.57;20.13;;;1.30;99.90;;;;;;5091839;28;20240;-76
2023/12/03 03:26:58;;;;;;;37.17;20.77;;;1.30;99.90;;;;;;5091101;28;20359;-76
2023/12/03 03:29:25;;;;;;;35.53;20.80;;;1.30;99.90;;;;;;5094346;28;20170;-77
2023/12/03 03:31:50;;;;;;;35.10;21.47;;;1.30;99.90;;;;;;5093724;28;20189;-77
2023/12/03 03:34:16;;;;;;;30.90;18.40;;;1.30;99.90;;;;;;5092415;28;20567;-76
2023/12/03 03:36:41;;;;;;;31.57;19.50;;;1.30;99.90;;;;;;5093412;28;20630;-76
2023/12/03 03:39:06;;;;;;;32.77;19.70;;;1.30;99.90;;;;;;5091617;28;20546;-77
2023/12/03 03:41:32;;;;;;;35.50;19.47;;;1.30;99.90;;;;;;5093025;28;20189;-77
2023/12/03 03:43:57;;;;;;;30.83;19.13;;;1.30;99.90;;;;;;5092832;28;20198;-77
2023/12/03 03:46:23;;;;;;;33.13;20.13;;;1.30;99.90;;;;;;5092486;28;20676;-77
2023/12/03 03:48:48;;;;;;;35.90;20.27;;;1.30;99.90;;;;;;5091457;28;20176;-77
2023/12/03 03:51:14;;;;;;;32.70;19.47;;;1.30;99.90;;;;;;5091391;28;20187;-77
2023/12/03 03:53:39;;;;;;;30.50;19.63;;;1.30;99.90;;;;;;5091446;28;20549;-76
2023/12/03 03:56:08;;;;;;;28.50;18.03;;;1.30;99.90;;;;;;5091343;28;20166;-77
2023/12/03 03:58:33;;;;;;;33.50;19.43;;;1.30;99.90;;;;;;5092783;28;20638;-77
2023/12/03 04:00:59;;;;;;;35.43;20.40;;;1.30;99.90;;;;;;5091881;28;20173;-77
2023/12/03 04:03:25;;;;;;;30.50;18.30;;;1.30;99.90;;;;;;5092546;28;20169;-76
2023/12/03 04:05:50;;;;;;;32.63;19.53;;;1.30;99.90;;;;;;5090147;28;20248;-77
2023/12/03 04:08:16;;;;;;;29.37;18.87;;;1.30;99.90;;;;;;5092909;28;20376;-77
2023/12/03 04:10:41;;;;;;;28.23;17.70;;;1.30;99.90;;;;;;5092476;28;20287;-76
2023/12/03 04:13:07;;;;;;;30.10;17.90;;;1.30;99.90;;;;;;5092755;28;20597;-76
2023/12/03 04:15:32;;;;;;;27.63;17.73;;;1.20;99.90;;;;;;5091086;28;20186;-77
2023/12/03 04:17:58;;;;;;;29.63;17.57;;;1.20;99.90;;;;;;5092395;28;20193;-77
2023/12/03 04:20:23;;;;;;;28.50;17.07;;;1.20;99.90;;;;;;5092499;28;20202;-76
2023/12/03 04:22:49;;;;;;;27.77;17.23;;;1.20;99.90;;;;;;5091089;28;20188;-77
2023/12/03 04:25:14;;;;;;;32.00;17.30;;;1.20;99.90;;;;;;5092207;28;20650;-76
2023/12/03 04:27:41;;;;;;;27.57;16.63;;;1.20;99.90;;;;;;5092216;28;20204;-77
2023/12/03 04:30:07;;;;;;;25.60;16.83;;;1.20;99.90;;;;;;5091187;28;20261;-76
2023/12/03 04:32:32;;;;;;;32.37;17.70;;;1.30;99.90;;;;;;5090831;28;20217;-77
2023/12/03 04:34:58;;;;;;;26.67;16.50;;;1.20;99.90;;;;;;5092099;28;20182;-76
2023/12/03 04:37:24;;;;;;;29.23;17.90;;;1.20;99.90;;;;;;5090298;28;20179;-75
2023/12/03 04:39:49;;;;;;;29.03;17.33;;;1.20;99.90;;;;;;5090133;28;20372;-77
2023/12/03 04:42:15;;;;;;;28.90;16.57;;;1.20;99.90;;;;;;5092110;28;20178;-76
2023/12/03 04:44:40;;;;;;;28.97;16.43;;;1.20;99.90;;;;;;5091993;28;20190;-76
2023/12/03 04:47:06;;;;;;;24.97;15.83;;;1.20;99.90;;;;;;5090582;28;20202;-76
2023/12/03 04:49:31;;;;;;;28.63;17.13;;;1.30;99.90;;;;;;5090721;28;20170;-77
2023/12/03 04:51:57;;;;;;;25.87;16.03;;;1.20;99.90;;;;;;5092157;28;20166;-76
2023/12/03 04:54:22;;;;;;;24.90;15.20;;;1.20;99.90;;;;;;5090889;28;20293;-76
2023/12/03 04:56:48;;;;;;;27.50;16.33;;;1.30;99.90;;;;;;5090490;28;20182;-76
2023/12/03 04:59:13;;;;;;;25.23;16.40;;;1.20;99.90;;;;;;5090728;28;20184;-76
2023/12/03 05:01:38;;;;;;;32.17;15.13;;;1.20;99.90;;;;;;5090705;28;20500;-77
2023/12/03 05:04:04;;;;;;;28.30;16.30;;;1.30;99.90;;;;;;5091883;28;20190;-77
2023/12/03 05:06:30;;;;;;;26.20;15.47;;;1.20;99.90;;;;;;5092000;28;20243;-76
2023/12/03 05:08:56;;;;;;;23.87;14.77;;;1.20;99.90;;;;;;5090486;28;20253;-77
2023/12/03 05:11:21;;;;;;;26.00;15.67;;;1.30;99.90;;;;;;5091998;28;20250;-76
2023/12/03 05:13:47;;;;;;;24.23;14.93;;;1.20;99.90;;;;;;5091601;28;20630;-76
2023/12/03 05:16:13;;;;;;;26.43;15.90;;;1.20;99.90;;;;;;5091731;28;20211;-77
2023/12/03 05:18:38;;;;;;;27.13;16.43;;;1.20;99.90;;;;;;5089853;28;20175;-76
2023/12/03 05:21:04;;;;;;;23.57;14.63;;;1.30;99.90;;;;;;5091635;28;20295;-77
2023/12/03 05:23:29;;;;;;;23.63;14.73;;;1.30;99.90;;;;;;5091910;28;20167;-77
2023/12/03 05:25:57;;;;;;;28.47;15.60;;;1.30;99.90;;;;;;5091274;28;20664;-77
2023/12/03 05:28:23;;;;;;;24.00;14.93;;;1.30;99.90;;;;;;5090166;28;20620;-77
2023/12/03 05:30:49;;;;;;;24.70;15.23;;;1.30;99.90;;;;;;5091767;28;20660;-77
2023/12/03 05:33:14;;;;;;;21.23;14.70;;;1.30;99.90;;;;;;5090856;28;20169;-77
2023/12/03 05:35:40;;;;;;;25.07;15.30;;;1.30;99.90;;;;;;5090157;28;20217;-77
2023/12/03 05:38:05;;;;;;;24.70;15.70;;;1.30;99.90;;;;;;5091548;28;20170;-76
2023/12/03 05:40:31;;;;;;;21.23;13.70;;;1.30;99.90;;;;;;5090833;28;20183;-76
2023/12/03 05:42:56;;;;;;;25.43;14.17;;;1.30;99.90;;;;;;5091723;28;20170;-75
2023/12/03 05:45:22;;;;;;;26.03;15.80;;;1.30;99.90;;;;;;5090238;28;20198;-76
2023/12/03 05:47:47;;;;;;;24.03;14.70;;;1.30;99.90;;;;;;5091605;28;20206;-76
2023/12/03 05:50:13;;;;;;;23.53;14.03;;;1.30;99.90;;;;;;5093162;28;20170;-76
2023/12/03 05:52:38;;;;;;;22.10;14.00;;;1.30;99.90;;;;;;5093734;28;20174;-76
2023/12/03 05:55:04;;;;;;;22.93;14.23;;;1.30;99.90;;;;;;5094956;28;20193;-76
2023/12/03 05:57:30;;;;;;;21.57;13.93;;;1.30;99.90;;;;;;5095367;28;20235;-76
2023/12/03 05:59:56;;;;;;;21.43;14.07;;;1.30;99.90;;;;;;5094255;28;20265;-77
2023/12/03 06:02:21;;;;;;;22.13;14.07;;;1.30;99.90;;;;;;5093591;28;20218;-76
2023/12/03 06:04:47;;;;;;;22.40;13.90;;;1.30;99.90;;;;;;5093536;28;20623;-76
2023/12/03 06:07:12;;;;;;;24.03;14.17;;;1.30;99.90;;;;;;5094768;28;20198;-77
2023/12/03 06:09:39;;;;;;;21.90;13.23;;;1.40;99.90;;;;;;5093880;28;20331;-76
2023/12/03 06:12:05;;;;;;;23.27;14.23;;;1.30;99.90;;;;;;5095049;28;20174;-77
2023/12/03 06:14:31;;;;;;;23.00;13.87;;;1.30;99.90;;;;;;5092999;28;20210;-77
2023/12/03 06:16:57;;;;;;;28.90;15.37;;;1.30;99.90;;;;;;5093298;28;20528;-76
2023/12/03 06:19:23;;;;;;;21.50;13.83;;;1.40;99.90;;;;;;5093208;28;20177;-75
2023/12/03 06:21:48;;;;;;;22.37;13.77;;;1.40;99.90;;;;;;5093228;28;20178;-77
2023/12/03 06:24:14;;;;;;;23.93;13.93;;;1.40;99.90;;;;;;5094452;28;20247;-76
2023/12/03 06:26:39;;;;;;;23.83;14.33;;;1.30;99.90;;;;;;5093066;28;20256;-76
2023/12/03 06:29:05;;;;;;;23.97;14.47;;;1.40;99.90;;;;;;5093117;28;20644;-76
2023/12/03 06:31:32;;;;;;;21.93;14.33;;;1.40;99.90;;;;;;5092514;28;20190;-76
2023/12/03 06:33:58;;;;;;;23.03;14.27;;;1.40;99.90;;;;;;5092867;28;20276;-76
2023/12/03 06:36:25;;;;;;;21.87;13.30;;;1.40;99.90;;;;;;5094502;28;20185;-76
2023/12/03 06:38:50;;;;;;;23.80;13.80;;;1.40;99.90;;;;;;5094488;28;20213;-76
2023/12/03 06:41:16;;;;;;;22.33;13.37;;;1.40;99.90;;;;;;5092878;28;20175;-75
2023/12/03 06:43:41;;;;;;;24.10;13.63;;;1.40;99.90;;;;;;5094057;28;20166;-76
2023/12/03 06:46:07;;;;;;;21.63;13.43;;;1.40;99.90;;;;;;5093548;28;20186;-76
2023/12/03 06:48:33;;;;;;;23.90;14.53;;;1.40;99.90;;;;;;5091612;28;20300;-76
2023/12/03 06:50:58;;;;;;;25.17;14.37;;;1.40;99.90;;;;;;5092693;28;20199;-77
2023/12/03 06:53:24;;;;;;;23.70;14.20;;;1.40;99.90;;;;;;5092596;28;20182;-76
2023/12/03 06:55:49;;;;;;;23.93;13.47;;;1.40;99.90;;;;;;5092534;28;20225;-77
2023/12/03 06:58:15;;;;;;;22.47;13.70;;;1.40;99.90;;;;;;5092562;28;20181;-76
2023/12/03 07:00:40;;;;;;;22.70;14.37;;;1.40;99.90;;;;;;5093264;28;20253;-76
2023/12/03 07:03:06;;;;;;;23.20;14.53;;;1.40;99.90;;;;;;5092107;28;20257;-77
2023/12/03 07:05:31;;;;;;;20.30;13.43;;;1.40;99.90;;;;;;5093760;28;20269;-77
2023/12/03 07:07:57;;;;;;;20.13;13.97;;;1.40;99.90;;;;;;5093822;28;20220;-77
2023/12/03 07:10:23;;;;;;;20.47;13.23;;;1.40;99.90;;;;;;5092267;28;20243;-76
2023/12/03 07:12:48;;;;;;;22.83;13.10;;;1.40;99.90;;;;;;5092277;28;20177;-76
2023/12/03 07:15:14;;;;;;;20.10;12.37;;;1.40;99.90;;;;;;5093989;28;20239;-76
2023/12/03 07:17:40;;;;;;;22.47;13.47;;;1.40;99.90;;;;;;5091641;28;20557;-77
2023/12/03 07:20:07;;;;;;;23.13;13.40;;;1.40;99.90;;;;;;5093475;28;20177;-76
2023/12/03 07:22:32;;;;;;;23.50;13.17;;;1.30;99.90;;;;;;5093393;28;20166;-76
2023/12/03 07:24:58;;;;;;;20.50;13.57;;;1.30;99.90;;;;;;5093481;28;20186;-77
2023/12/03 07:27:23;;;;;;;19.70;12.30;;;1.30;99.90;;;;;;5093419;28;20518;-77
2023/12/03 07:29:55;;;;;;;21.57;12.90;;;1.30;99.90;;;;;;5093221;28;20170;-74
2023/12/03 07:32:22;;;;;;;22.10;12.60;;;1.30;99.90;;;;;;5090852;28;20193;-77
2023/12/03 07:34:47;;;;;;;20.93;12.50;;;1.30;99.90;;;;;;5083590;28;20271;-76
2023/12/03 07:37:13;;;;;;;20.67;12.30;;;1.30;99.90;;;;;;5092519;28;20182;-76
2023/12/03 07:39:39;;;;;;;19.00;12.00;;;1.30;99.90;;;;;;5094340;28;20194;-77
2023/12/03 07:42:05;;;;;;;19.13;11.80;;;1.30;99.90;;;;;;5092698;28;20603;-77
2023/12/03 07:44:30;;;;;;;21.00;12.27;;;1.30;99.90;;;;;;5093770;28;20189;-77
2023/12/03 07:46:56;;;;;;;19.87;11.33;;;1.30;99.90;;;;;;5093770;28;20194;-77
2023/12/03 07:49:21;;;;;;;18.83;12.23;;;1.30;99.90;;;;;;5090600;28;20176;-77
2023/12/03 07:51:47;;;;;;;19.33;11.73;;;1.40;99.90;;;;;;5093770;28;20173;-76
2023/12/03 07:54:13;;;;;;;16.50;10.90;;;1.40;99.90;;;;;;5093625;28;20194;-77
2023/12/03 07:56:40;;;;;;;19.10;12.67;;;1.30;94.20;;;;;;5093072;28;20288;-76
2023/12/03 07:59:06;;;;;;;19.17;11.77;;;1.30;91.80;;;;;;5091334;28;20212;-76
2023/12/03 08:01:32;;;;;;;16.37;10.10;;;1.30;91.40;;;;;;5094559;28;20175;-77
2023/12/03 08:03:58;;;;;;;17.77;10.87;;;1.30;89.70;;;;;;5093832;28;20669;-77
2023/12/03 08:06:24;;;;;;;15.67;10.37;;;1.30;94.20;;;;;;5094904;28;20567;-78
2023/12/03 08:08:54;;;;;;;17.20;10.87;;;1.30;78.70;;;;;;5093809;28;20177;-77
2023/12/03 08:11:20;;;;;;;16.43;10.80;;;1.30;59.80;;;;;;5091420;28;20174;-77
2023/12/03 08:13:47;;;;;;;19.33;10.20;;;1.30;40.50;;;;;;5090872;28;20697;-77
2023/12/03 08:16:12;;;;;;;23.00;11.30;;;1.40;47.60;;;;;;5092616;28;20509;-77
2023/12/03 08:18:38;;;;;;;15.13;9.53;;;1.30;38.60;;;;;;5092649;28;20185;-77
2023/12/03 08:21:04;;;;;;;18.17;10.47;;;1.40;35.20;;;;;;5092580;28;20174;-76
2023/12/03 08:23:33;;;;;;;17.27;10.93;;;1.30;9.60;;;;;;5092766;28;20526;-76
2023/12/03 08:26:05;;;;;;;16.53;10.83;;;1.30;1.00;;;;;;5091103;28;20653;-76
2023/12/03 08:28:31;;;;;;;17.80;11.00;;;1.30;2.50;;;;;;5090522;28;20202;-77
2023/12/03 08:30:57;;;;;;;17.73;10.90;;;1.30;9.10;;;;;;5091218;28;20198;-76
2023/12/03 08:33:22;;;;;;;17.50;10.73;;;1.30;1.00;;;;;;5092595;28;20167;-76
2023/12/03 08:35:48;;;;;;;19.73;11.20;;;1.30;1.00;;;;;;5092354;28;20269;-76
2023/12/03 08:38:13;;;;;;;21.60;11.63;;;1.40;1.00;;;;;;5093310;28;20593;-75
2023/12/03 08:40:39;;;;;;;15.90;10.63;;;1.30;1.00;;;;;;5092167;28;20185;-75
2023/12/03 08:43:05;;;;;;;14.50;10.43;;;1.30;1.00;;;;;;5092198;28;20547;-75
2023/12/03 08:45:32;;;;;;;15.87;10.73;;;1.30;1.00;;;;;;5087923;28;20567;-74
2023/12/03 08:47:59;;;;;;;16.37;10.70;;;1.30;1.00;;;;;;5090693;28;20204;-76
2023/12/03 08:50:27;;;;;;;14.63;10.07;;;1.30;1.00;;;;;;5090942;28;20307;-76
2023/12/03 08:52:53;;;;;;;19.33;11.83;;;1.30;1.00;;;;;;5090830;28;20672;-75
2023/12/03 08:55:18;;;;;;;18.63;12.30;;;1.30;1.00;;;;;;5092210;28;20186;-76
2023/12/03 08:57:44;;;;;;;17.50;11.07;;;1.30;1.00;;;;;;5092362;28;20177;-75
2023/12/03 09:00:12;;;;;;;17.67;11.70;;;1.30;1.00;;;;;;5091244;28;20649;-76
2023/12/03 09:02:38;;;;;;;18.17;11.00;;;1.30;1.00;;;;;;5091938;28;20245;-75
2023/12/03 09:05:05;;;;;;;18.03;11.37;;;1.30;1.00;;;;;;5090676;28;20202;-76
2023/12/03 09:07:30;;;;;;;19.47;11.53;;;1.30;1.00;;;;;;5091898;28;20284;-76
2023/12/03 09:09:57;;;;;;;20.53;11.90;;;1.40;1.00;;;;;;5092114;28;20209;-75
2023/12/03 09:12:22;;;;;;;20.37;11.63;;;1.40;1.00;;;;;;5091956;28;20288;-76
2023/12/03 09:14:48;;;;;;;18.80;12.07;;;1.40;1.00;;;;;;5089778;28;20701;-76
2023/12/03 09:17:13;;;;;;;19.93;11.73;;;1.40;1.00;;;;;;5092384;28;20576;-76
2023/12/03 09:19:39;;;;;;;19.83;12.00;;;1.40;1.00;;;;;;5092597;28;20261;-76
2023/12/03 09:22:04;;;;;;;17.17;11.33;;;1.50;1.00;;;;;;5092429;28;20166;-76
2023/12/03 09:24:30;;;;;;;17.93;11.30;;;1.50;1.00;;;;;;5096327;28;20190;-76
2023/12/03 09:26:56;;;;;;;17.50;11.73;;;1.50;1.00;;;;;;5097006;28;20202;-76
2023/12/03 09:29:22;;;;;;;17.07;11.03;;;1.60;1.00;;;;;;5094575;28;20483;-75
2023/12/03 09:31:47;;;;;;;19.90;11.67;;;1.60;1.00;;;;;;5094239;28;20685;-75
2023/12/03 09:34:13;;;;;;;19.10;11.40;;;1.60;1.00;;;;;;5095739;28;20190;-75
2023/12/03 09:36:39;;;;;;;16.53;10.50;;;1.70;1.00;;;;;;5095499;28;20182;-75
2023/12/03 09:39:04;;;;;;;17.30;10.97;;;1.70;1.00;;;;;;5095981;28;20174;-76
2023/12/03 09:41:33;;;;;;;18.57;11.10;;;1.80;1.00;;;;;;5093963;28;20173;-74
2023/12/03 09:44:02;;;;;;;21.27;11.10;;;1.80;1.00;;;;;;5095293;28;20273;-74
2023/12/03 09:46:35;;;;;;;20.60;11.77;;;1.80;1.00;;;;;;5094372;28;20212;-76
2023/12/03 09:49:03;;;;;;;17.57;11.13;;;1.90;1.00;;;;;;5096000;28;20579;-75
2023/12/03 09:51:31;;;;;;;17.00;10.80;;;1.90;1.00;;;;;;5094034;28;20235;-76
2023/12/03 09:53:59;;;;;;;19.30;11.90;;;2.00;1.00;;;;;;5095230;28;20293;-76
2023/12/03 09:56:28;;;;;;;17.47;10.80;;;2.10;1.00;;;;;;5095137;28;20251;-76
2023/12/03 09:58:54;;;;;;;20.10;12.97;;;2.10;1.00;;;;;;5095083;28;20200;-75
2023/12/03 10:01:23;;;;;;;19.37;11.73;;;2.10;1.00;;;;;;5092293;28;20193;-76
2023/12/03 10:03:51;;;;;;;19.37;10.73;;;2.20;1.00;;;;;;5095134;28;20269;-76
2023/12/03 10:06:21;;;;;;;16.60;10.60;;;2.30;1.00;;;;;;5093530;28;20171;-76
2023/12/03 10:08:48;;;;;;;18.80;10.97;;;2.30;1.00;;;;;;5093976;28;20495;-77
2023/12/03 10:11:17;;;;;;;17.73;10.63;;;2.30;1.00;;;;;;5095901;28;20172;-78
2023/12/03 10:13:43;;;;;;;18.93;11.63;;;2.40;1.00;;;;;;5094414;28;20698;-77
2023/12/03 10:16:11;;;;;;;18.57;11.57;;;2.40;99.90;;;;;;5095801;28;20174;-79
2023/12/03 10:18:37;;;;;;;18.77;11.13;;;2.50;99.90;;;;;;5094366;28;20189;-76
2023/12/03 10:21:09;;;;;;;15.20;10.23;;;2.50;99.90;;;;;;5094676;28;20664;-76
2023/12/03 10:23:36;;;;;;;16.93;11.03;;;2.50;99.90;;;;;;5095179;28;20659;-77
2023/12/03 10:26:12;;;;;;;17.17;11.30;;;2.60;99.90;;;;;;5094808;28;20227;-76
2023/12/03 10:28:39;;;;;;;19.27;11.00;;;2.60;99.90;;;;;;5094421;28;20202;-76
2023/12/03 10:31:10;;;;;;;20.27;11.83;;;2.60;99.90;;;;;;5094335;28;20178;-75
2023/12/03 10:33:37;;;;;;;19.00;11.20;;;2.70;99.90;;;;;;5092288;28;20182;-76
2023/12/03 10:36:03;;;;;;;17.93;11.03;;;2.70;99.90;;;;;;5094055;28;20637;-76
2023/12/03 10:38:39;;;;;;;23.77;10.80;;;2.80;99.90;;;;;;5093064;28;20178;-76
2023/12/03 10:41:09;;;;;;;19.60;11.23;;;2.80;99.90;;;;;;5094342;28;20586;-75
2023/12/03 10:43:35;;;;;;;16.47;10.03;;;2.80;99.90;;;;;;5094262;28;20680;-75
2023/12/03 10:46:10;;;;;;;20.23;11.10;;;2.80;99.90;;;;;;5094380;28;20174;-75
2023/12/03 10:48:36;;;;;;;17.90;11.70;;;2.80;99.90;;;;;;5092758;28;20258;-75
2023/12/03 10:51:07;;;;;;;16.63;10.47;;;2.80;99.90;;;;;;5094098;28;20178;-76
2023/12/03 10:53:34;;;;;;;19.27;10.63;;;2.80;99.90;;;;;;5094088;28;20680;-76
2023/12/03 10:56:07;;;;;;;17.20;11.60;;;2.70;99.90;;;;;;5094220;28;20167;-76
2023/12/03 10:58:37;;;;;;;18.70;12.07;;;2.80;99.90;;;;;;5094162;28;20638;-76
2023/12/03 11:01:11;;;;;;;20.90;11.63;;;2.70;99.90;;;;;;5094191;28;20638;-76
2023/12/03 11:03:48;;;;;;;17.60;10.47;;;2.60;99.90;;;;;;5093564;28;20525;-76
2023/12/03 11:06:15;;;;;;;19.33;10.60;;;2.60;99.90;;;;;;5091816;28;20182;-75
2023/12/03 11:08:41;;;;;;;20.23;11.53;;;2.60;99.90;;;;;;5092542;28;20237;-76
2023/12/03 11:11:10;;;;;;;18.27;11.13;;;2.60;99.90;;;;;;5094201;28;20611;-76
2023/12/03 11:13:36;;;;;;;19.20;11.37;;;2.60;99.90;;;;;;5092310;28;20228;-76
2023/12/03 11:16:04;;;;;;;19.67;11.93;;;2.70;99.90;;;;;;5092287;28;20591;-76
2023/12/03 11:18:32;;;;;;;20.80;12.13;;;2.80;99.90;;;;;;5093466;28;20269;-76
2023/12/03 11:21:09;;;;;;;19.70;11.50;;;2.80;99.90;;;;;;5092730;28;20186;-75
2023/12/03 11:24:09;;;;;;;22.93;12.10;;;2.90;99.90;;;;;;5093747;28;20163;-75
2023/12/03 11:26:35;;;;;;;17.80;10.97;;;3.00;99.90;;;;;;5093446;28;20158;-76
2023/12/03 11:29:01;;;;;;;21.80;11.43;;;3.10;99.90;;;;;;5093367;28;20549;-75
2023/12/03 11:31:26;;;;;;;20.87;11.67;;;3.10;99.90;;;;;;5091888;28;20674;-76
2023/12/03 11:33:59;;;;;;;17.43;10.90;;;3.20;99.90;;;;;;5091846;28;20174;-76
2023/12/03 11:36:36;;;;;;;15.93;10.33;;;3.30;99.90;;;;;;5092823;28;20541;-75
2023/12/03 11:39:02;;;;;;;16.43;10.43;;;3.30;99.90;;;;;;5093207;28;20173;-75
2023/12/03 11:41:38;;;;;;;17.40;10.83;;;3.30;99.90;;;;;;5093234;28;20185;-75
2023/12/03 11:44:23;;;;;;;16.03;10.47;;;3.40;99.90;;;;;;5091688;28;20197;-75
2023/12/03 11:46:50;;;;;;;23.27;11.53;;;3.40;99.90;;;;;;5092225;28;20198;-75
2023/12/03 11:49:17;;;;;;;18.47;10.80;;;3.50;99.90;;;;;;5093000;28;20173;-75
2023/12/03 11:51:45;;;;;;;17.40;10.33;;;3.50;99.90;;;;;;5093165;28;20253;-75
2023/12/03 11:54:20;;;;;;;17.60;10.47;;;3.40;99.90;;;;;;5091492;28;20285;-75
2023/12/03 11:56:45;;;;;;;14.87;10.33;;;3.40;99.90;;;;;;5092923;28;20176;-76
2023/12/03 11:59:14;;;;;;;18.63;10.60;;;3.40;99.90;;;;;;5090751;28;20178;-75
2023/12/03 12:01:39;;;;;;;19.77;11.03;;;3.40;99.90;;;;;;5092832;28;20170;-75
2023/12/03 12:04:05;;;;;;;19.70;10.33;;;3.30;99.90;;;;;;5090808;28;20254;-75
2023/12/03 12:06:31;;;;;;;18.13;10.20;;;3.30;99.90;;;;;;5092595;28;20189;-77
2023/12/03 12:08:58;;;;;;;18.07;9.93;;;3.20;99.90;;;;;;5091343;28;20703;-76
2023/12/03 12:11:24;;;;;;;16.03;10.00;;;3.20;99.90;;;;;;5093033;28;20184;-76
2023/12/03 12:13:50;;;;;;;16.80;10.20;;;3.20;99.90;;;;;;5092907;28;20166;-77
2023/12/03 12:16:16;;;;;;;17.00;10.97;;;3.20;99.90;;;;;;5091300;28;20563;-77
2023/12/03 12:18:41;;;;;;;16.90;9.57;;;3.20;99.90;;;;;;5091805;28;20178;-76
2023/12/03 12:21:10;;;;;;;15.67;9.33;;;3.10;99.90;;;;;;5091668;28;20171;-76
2023/12/03 12:23:35;;;;;;;18.53;10.73;;;3.20;99.90;;;;;;5091304;28;20646;-77
2023/12/03 12:26:01;;;;;;;17.23;9.70;;;3.10;99.90;;;;;;5091665;28;20231;-76
2023/12/03 12:28:27;;;;;;;17.50;10.63;;;3.10;99.90;;;;;;5091364;28;20212;-77
2023/12/03 12:30:55;;;;;;;18.07;10.73;;;3.10;99.90;;;;;;5088896;28;20855;-78
2023/12/03 12:33:20;;;;;;;17.03;11.03;;;3.10;99.90;;;;;;5089480;28;20174;-77
2023/12/03 12:35:52;;;;;;;14.77;10.43;;;3.10;99.90;;;;;;5090381;28;20186;-77